Time;durP1;ratioP1;P1;durP2;ratioP2;P2;SDS_P1;SDS_P2;PMS_P1;PMS_P2;Temp;Humidity;BMP_temperature;BMP_pressure;BME280_temperature;BME280_humidity;BME280_pressure;Samples;Min_cycle;Max_cycle;Signal;HPM_P1;HPM_P2
2023/06/01 00:01:12;;;;;;;6.28;2.60;;;;;;;;;;5055051;28;20068;-61
2023/06/01 00:03:39;;;;;;;3.03;2.17;;;;;;;;;;5054975;28;20059;-61
2023/06/01 00:06:06;;;;;;;3.95;2.10;;;;;;;;;;5054991;28;20029;-61
2023/06/01 00:08:32;;;;;;;2.95;2.10;;;;;;;;;;5055109;28;20020;-61
2023/06/01 00:10:59;;;;;;;3.38;2.20;;;;;;;;;;5055382;28;20063;-61
2023/06/01 00:13:25;;;;;;;4.75;2.53;;;;;;;;;;5054857;28;20033;-61
2023/06/01 00:15:51;;;;;;;3.22;1.83;;;;;;;;;;5055259;28;20119;-61
2023/06/01 00:18:17;;;;;;;4.97;2.55;;;;;;;;;;5054717;28;20075;-61
2023/06/01 00:20:44;;;;;;;2.47;1.83;;;;;;;;;;5054915;28;20021;-61
2023/06/01 00:23:10;;;;;;;3.90;2.08;;;;;;;;;;5054648;28;20026;-61
2023/06/01 00:25:36;;;;;;;4.25;2.53;;;;;;;;;;5054517;28;20040;-61
2023/06/01 00:28:02;;;;;;;6.72;2.38;;;;;;;;;;5054945;28;20455;-61
2023/06/01 00:30:28;;;;;;;2.15;1.48;;;;;;;;;;5054641;28;20025;-61
2023/06/01 00:32:54;;;;;;;4.18;2.63;;;;;;;;;;5054567;28;20025;-61
2023/06/01 00:35:20;;;;;;;5.05;2.70;;;;;;;;;;5054424;28;20021;-61
2023/06/01 00:37:46;;;;;;;3.10;2.30;;;;;;;;;;5054736;28;20557;-61
2023/06/01 00:40:12;;;;;;;3.50;1.92;;;;;;;;;;5054360;28;20356;-61
2023/06/01 00:42:38;;;;;;;3.25;2.30;;;;;;;;;;5054327;28;20367;-61
2023/06/01 00:45:05;;;;;;;4.10;2.30;;;;;;;;;;5054300;28;20028;-61
2023/06/01 00:47:33;;;;;;;4.07;2.53;;;;;;;;;;5054509;28;20025;-61
2023/06/01 00:49:59;;;;;;;2.97;2.08;;;;;;;;;;5053551;28;20409;-61
2023/06/01 00:52:25;;;;;;;3.45;2.22;;;;;;;;;;5054490;28;20048;-61
2023/06/01 00:54:51;;;;;;;5.60;2.03;;;;;;;;;;5054654;28;20017;-61
2023/06/01 00:57:17;;;;;;;3.45;1.77;;;;;;;;;;5054163;28;20403;-61
2023/06/01 00:59:43;;;;;;;2.47;1.75;;;;;;;;;;5054040;28;20025;-61
2023/06/01 01:02:09;;;;;;;4.82;2.47;;;;;;;;;;5054270;28;20126;-61
2023/06/01 01:04:35;;;;;;;3.13;1.88;;;;;;;;;;5053959;28;20025;-61
2023/06/01 01:07:03;;;;;;;3.58;2.15;;;;;;;;;;5054450;28;20056;-61
2023/06/01 01:09:47;;;;;;;6.70;2.60;;;;;;;;;;5053737;28;20075;-61
2023/06/01 01:12:18;;;;;;;3.35;2.15;;;;;;;;;;5054398;28;20049;-61
2023/06/01 01:14:48;;;;;;;4.88;2.00;;;;;;;;;;5054122;28;20052;-61
2023/06/01 01:17:32;;;;;;;4.40;2.67;;;;;;;;;;5053620;28;20025;-61
2023/06/01 01:20:10;;;;;;;3.90;2.55;;;;;;;;;;5054560;28;20102;-61
2023/06/01 01:22:39;;;;;;;4.43;2.30;;;;;;;;;;5054235;28;20394;-61
2023/06/01 01:25:23;;;;;;;5.35;1.90;;;;;;;;;;5053682;28;20029;-61
2023/06/01 01:28:01;;;;;;;4.25;2.33;;;;;;;;;;5053752;28;20138;-61
2023/06/01 01:30:28;;;;;;;3.10;1.98;;;;;;;;;;5054092;28;20029;-61
2023/06/01 01:32:56;;;;;;;3.75;2.28;;;;;;;;;;5053675;28;20079;-61
2023/06/01 01:35:23;;;;;;;3.97;1.90;;;;;;;;;;5053593;28;20036;-60
2023/06/01 01:37:53;;;;;;;3.28;2.10;;;;;;;;;;5054206;28;20028;-60
2023/06/01 01:40:19;;;;;;;2.40;1.60;;;;;;;;;;5053516;28;20522;-60
2023/06/01 01:42:46;;;;;;;3.55;2.13;;;;;;;;;;5053534;28;20593;-61
2023/06/01 01:45:12;;;;;;;5.90;2.30;;;;;;;;;;5053554;28;20083;-61
2023/06/01 01:47:41;;;;;;;4.03;1.95;;;;;;;;;;5054080;28;20052;-61
2023/06/01 01:50:10;;;;;;;4.38;2.40;;;;;;;;;;5053888;28;20086;-61
2023/06/01 01:52:38;;;;;;;2.92;2.08;;;;;;;;;;5053997;28;20086;-61
2023/06/01 01:55:06;;;;;;;4.47;2.00;;;;;;;;;;5054187;28;20017;-61
2023/06/01 01:57:34;;;;;;;6.50;2.25;;;;;;;;;;5053385;28;20025;-61
2023/06/01 02:00:00;;;;;;;3.13;2.53;;;;;;;;;;5053258;28;20033;-61
2023/06/01 02:02:26;;;;;;;2.65;1.88;;;;;;;;;;5055359;28;20025;-61
2023/06/01 02:04:52;;;;;;;6.78;1.75;;;;;;;;;;5057198;28;20024;-61
2023/06/01 02:07:18;;;;;;;2.97;2.03;;;;;;;;;;5057595;28;20160;-61
2023/06/01 02:09:44;;;;;;;4.28;2.17;;;;;;;;;;5056746;28;20021;-61
2023/06/01 02:12:10;;;;;;;5.65;1.52;;;;;;;;;;5057440;28;20025;-61
2023/06/01 02:14:36;;;;;;;3.35;2.05;;;;;;;;;;5057525;28;20136;-61
2023/06/01 02:17:02;;;;;;;3.38;1.63;;;;;;;;;;5056797;28;20572;-61
2023/06/01 02:19:28;;;;;;;3.00;2.03;;;;;;;;;;5057496;28;20025;-61
2023/06/01 02:21:54;;;;;;;3.25;2.15;;;;;;;;;;5057062;28;20029;-61
2023/06/01 02:24:21;;;;;;;3.35;1.85;;;;;;;;;;5056832;28;20465;-61
2023/06/01 02:26:48;;;;;;;3.28;2.08;;;;;;;;;;5057496;28;20116;-61
2023/06/01 02:29:15;;;;;;;4.35;1.85;;;;;;;;;;5056888;28;20025;-61
2023/06/01 02:31:41;;;;;;;3.13;1.83;;;;;;;;;;5056693;28;20021;-61
2023/06/01 02:34:07;;;;;;;3.78;2.03;;;;;;;;;;5057601;28;20033;-61
2023/06/01 02:36:34;;;;;;;3.30;2.10;;;;;;;;;;5056998;28;20025;-61
2023/06/01 02:39:00;;;;;;;2.78;2.20;;;;;;;;;;5056969;28;20421;-61
2023/06/01 02:41:26;;;;;;;3.97;2.38;;;;;;;;;;5056519;28;20033;-61
2023/06/01 02:43:52;;;;;;;3.25;1.67;;;;;;;;;;5056841;28;20066;-61
2023/06/01 02:46:18;;;;;;;4.47;2.38;;;;;;;;;;5056536;28;20021;-61
2023/06/01 02:48:45;;;;;;;4.05;1.80;;;;;;;;;;5056801;28;20025;-61
2023/06/01 02:51:11;;;;;;;2.33;1.70;;;;;;;;;;5056344;28;20079;-61
2023/06/01 02:53:39;;;;;;;4.45;2.30;;;;;;;;;;5056415;28;20060;-61
2023/06/01 02:56:05;;;;;;;2.65;1.77;;;;;;;;;;5056655;28;20116;-61
2023/06/01 02:58:31;;;;;;;3.53;2.10;;;;;;;;;;5056269;28;20370;-61
2023/06/01 03:00:57;;;;;;;2.40;1.70;;;;;;;;;;5056268;28;20467;-61
2023/06/01 03:03:24;;;;;;;4.55;2.33;;;;;;;;;;5056253;28;20021;-61
2023/06/01 03:05:50;;;;;;;4.40;2.15;;;;;;;;;;5056537;28;20028;-61
2023/06/01 03:08:16;;;;;;;3.58;1.90;;;;;;;;;;5055878;28;20025;-61
2023/06/01 03:10:42;;;;;;;2.85;2.00;;;;;;;;;;5056461;28;20037;-61
2023/06/01 03:13:08;;;;;;;3.90;2.38;;;;;;;;;;5054995;28;20646;-61
2023/06/01 03:15:34;;;;;;;5.82;2.42;;;;;;;;;;5055710;28;20192;-61
2023/06/01 03:18:03;;;;;;;3.78;2.65;;;;;;;;;;5056470;28;20386;-61
2023/06/01 03:20:29;;;;;;;4.22;2.20;;;;;;;;;;5055921;28;20143;-61
2023/06/01 03:22:55;;;;;;;4.28;2.45;;;;;;;;;;5055897;28;20017;-61
2023/06/01 03:25:21;;;;;;;3.65;2.00;;;;;;;;;;5055785;28;20029;-61
2023/06/01 03:27:47;;;;;;;3.50;2.47;;;;;;;;;;5056576;28;20017;-61
2023/06/01 03:30:14;;;;;;;3.25;1.92;;;;;;;;;;5055629;28;20029;-60
2023/06/01 03:32:41;;;;;;;4.43;2.50;;;;;;;;;;5056235;28;20048;-61
2023/06/01 03:35:07;;;;;;;4.68;2.00;;;;;;;;;;5056030;28;20020;-61
2023/06/01 03:37:34;;;;;;;3.67;2.13;;;;;;;;;;5055445;28;20456;-61
2023/06/01 03:40:01;;;;;;;2.83;1.50;;;;;;;;;;5055579;28;20033;-61
2023/06/01 03:42:26;;;;;;;4.38;1.90;;;;;;;;;;5055517;28;20060;-61
2023/06/01 03:44:52;;;;;;;3.45;1.77;;;;;;;;;;5055812;28;20060;-61
2023/06/01 03:47:18;;;;;;;3.22;1.83;;;;;;;;;;5055176;28;20025;-60
2023/06/01 03:49:45;;;;;;;5.18;2.28;;;;;;;;;;5055922;28;20541;-60
2023/06/01 03:52:11;;;;;;;4.80;2.45;;;;;;;;;;5055368;28;20068;-61
2023/06/01 03:54:37;;;;;;;2.60;1.80;;;;;;;;;;5055363;28;20056;-61
2023/06/01 03:57:03;;;;;;;3.50;2.42;;;;;;;;;;5055313;28;20021;-61
2023/06/01 03:59:29;;;;;;;2.10;1.30;;;;;;;;;;5055408;28;20025;-61
2023/06/01 04:01:56;;;;;;;3.50;1.98;;;;;;;;;;5055150;28;20455;-61
2023/06/01 04:04:24;;;;;;;3.35;2.22;;;;;;;;;;5055848;28;20029;-60
2023/06/01 04:06:51;;;;;;;3.35;1.98;;;;;;;;;;5055504;28;20029;-61
2023/06/01 04:09:18;;;;;;;3.40;2.50;;;;;;;;;;5055790;28;20024;-61
2023/06/01 04:11:44;;;;;;;2.85;1.75;;;;;;;;;;5054864;28;20029;-60
2023/06/01 04:14:10;;;;;;;2.88;1.60;;;;;;;;;;5055575;28;20060;-61
2023/06/01 04:16:36;;;;;;;4.65;2.22;;;;;;;;;;5055687;28;20029;-61
2023/06/01 04:19:02;;;;;;;2.97;1.90;;;;;;;;;;5054900;28;20065;-61
2023/06/01 04:21:28;;;;;;;6.68;2.10;;;;;;;;;;5054777;28;20086;-60
2023/06/01 04:23:54;;;;;;;3.30;1.73;;;;;;;;;;5055072;28;20021;-61
2023/06/01 04:26:20;;;;;;;3.80;2.35;;;;;;;;;;5054397;28;20017;-61
2023/06/01 04:28:48;;;;;;;2.65;1.73;;;;;;;;;;5054775;28;20033;-60
2023/06/01 04:31:16;;;;;;;3.38;2.08;;;;;;;;;;5054228;28;20033;-61
2023/06/01 04:33:52;;;;;;;4.10;1.55;;;;;;;;;;5054247;28;20029;-61
2023/06/01 04:36:21;;;;;;;2.45;1.85;;;;;;;;;;5055094;28;20025;-61
2023/06/01 04:38:50;;;;;;;8.50;2.20;;;;;;;;;;5053889;28;20086;-61
2023/06/01 04:41:16;;;;;;;3.92;2.00;;;;;;;;;;5054065;28;20025;-61
2023/06/01 04:43:42;;;;;;;3.40;1.90;;;;;;;;;;5053962;28;20366;-61
2023/06/01 04:46:08;;;;;;;2.88;1.65;;;;;;;;;;5054396;28;20029;-61
2023/06/01 04:48:35;;;;;;;3.90;2.13;;;;;;;;;;5053960;28;20029;-61
2023/06/01 04:51:03;;;;;;;3.38;2.25;;;;;;;;;;5053825;28;20039;-61
2023/06/01 04:53:29;;;;;;;4.47;2.70;;;;;;;;;;5053750;28;20025;-59
2023/06/01 04:55:56;;;;;;;3.25;1.65;;;;;;;;;;5054226;28;20070;-59
2023/06/01 04:58:22;;;;;;;3.95;2.45;;;;;;;;;;5054535;28;20159;-59
2023/06/01 05:00:48;;;;;;;2.45;1.90;;;;;;;;;;5053958;28;20099;-60
2023/06/01 05:03:15;;;;;;;4.25;2.03;;;;;;;;;;5054204;28;20025;-60
2023/06/01 05:05:41;;;;;;;4.55;2.33;;;;;;;;;;5053945;28;20021;-60
2023/06/01 05:08:06;;;;;;;3.05;2.15;;;;;;;;;;5054254;28;20021;-60
2023/06/01 05:10:33;;;;;;;4.40;1.83;;;;;;;;;;5053861;28;20082;-60
2023/06/01 05:12:59;;;;;;;3.58;2.00;;;;;;;;;;5053904;28;20522;-60
2023/06/01 05:15:27;;;;;;;3.83;2.25;;;;;;;;;;5053433;28;20076;-60
2023/06/01 05:17:53;;;;;;;4.13;1.88;;;;;;;;;;5053546;28;20463;-60
2023/06/01 05:20:20;;;;;;;4.18;2.20;;;;;;;;;;5053846;28;20044;-60
2023/06/01 05:22:46;;;;;;;3.75;2.47;;;;;;;;;;5053798;28;20430;-60
2023/06/01 05:25:12;;;;;;;2.53;1.50;;;;;;;;;;5054244;28;20025;-60
2023/06/01 05:27:38;;;;;;;3.63;1.95;;;;;;;;;;5053697;28;20032;-60
2023/06/01 05:30:05;;;;;;;4.90;2.08;;;;;;;;;;5053771;28;20033;-60
2023/06/01 05:32:31;;;;;;;3.17;2.13;;;;;;;;;;5054135;28;20481;-60
2023/06/01 05:34:57;;;;;;;6.05;2.65;;;;;;;;;;5054134;28;20025;-60
2023/06/01 05:37:23;;;;;;;6.07;1.73;;;;;;;;;;5058057;28;20021;-60
2023/06/01 05:39:49;;;;;;;3.78;2.33;;;;;;;;;;5060238;28;20056;-60
2023/06/01 05:42:15;;;;;;;2.80;1.80;;;;;;;;;;5061015;28;20457;-60
2023/06/01 05:44:41;;;;;;;3.80;2.00;;;;;;;;;;5060511;28;20060;-60
2023/06/01 05:47:07;;;;;;;4.60;2.72;;;;;;;;;;5060229;28;20029;-60
2023/06/01 05:49:34;;;;;;;3.63;2.45;;;;;;;;;;5060180;28;20098;-60
2023/06/01 05:52:00;;;;;;;2.95;2.33;;;;;;;;;;5059355;28;20123;-60
2023/06/01 05:54:26;;;;;;;3.05;1.83;;;;;;;;;;5060099;28;20025;-60
2023/06/01 05:56:52;;;;;;;2.83;2.00;;;;;;;;;;5060358;28;20443;-60
2023/06/01 05:59:18;;;;;;;3.58;2.05;;;;;;;;;;5060554;28;20033;-60
2023/06/01 06:01:44;;;;;;;5.07;2.55;;;;;;;;;;5059886;28;20029;-60
2023/06/01 06:04:11;;;;;;;3.58;2.30;;;;;;;;;;5060282;28;20104;-60
2023/06/01 06:06:37;;;;;;;4.55;2.70;;;;;;;;;;5060618;28;20507;-60
2023/06/01 06:09:04;;;;;;;3.40;2.25;;;;;;;;;;5060284;28;20021;-60
2023/06/01 06:11:30;;;;;;;3.80;2.65;;;;;;;;;;5059918;28;20025;-60
2023/06/01 06:13:56;;;;;;;5.35;3.20;;;;;;;;;;5060018;28;20052;-60
2023/06/01 06:16:22;;;;;;;5.85;2.70;;;;;;;;;;5059991;28;20019;-60
2023/06/01 06:18:48;;;;;;;4.15;2.85;;;;;;;;;;5060545;28;20032;-60
2023/06/01 06:21:14;;;;;;;6.97;3.60;;;;;;;;;;5060011;28;20508;-60
2023/06/01 06:23:41;;;;;;;4.88;2.92;;;;;;;;;;5059971;28;20413;-60
2023/06/01 06:26:07;;;;;;;3.60;2.65;;;;;;;;;;5060643;28;20021;-60
2023/06/01 06:28:33;;;;;;;8.75;2.80;;;;;;;;;;5060122;28;20529;-60
2023/06/01 06:30:59;;;;;;;6.10;2.90;;;;;;;;;;5059763;28;20029;-59
2023/06/01 06:33:25;;;;;;;3.63;2.80;;;;;;;;;;5060071;28;20070;-59
2023/06/01 06:35:51;;;;;;;4.05;3.22;;;;;;;;;;5059719;28;20017;-60
2023/06/01 06:38:17;;;;;;;5.07;3.42;;;;;;;;;;5059788;28;20021;-59
2023/06/01 06:40:43;;;;;;;4.32;2.55;;;;;;;;;;5059784;28;20044;-60
2023/06/01 06:43:09;;;;;;;8.73;3.63;;;;;;;;;;5060306;28;20159;-60
2023/06/01 06:45:35;;;;;;;4.55;3.13;;;;;;;;;;5059852;28;20100;-59
2023/06/01 06:48:01;;;;;;;4.68;2.85;;;;;;;;;;5058209;28;20408;-60
2023/06/01 06:50:27;;;;;;;7.53;3.38;;;;;;;;;;5056189;28;20032;-60
2023/06/01 06:52:53;;;;;;;3.92;2.83;;;;;;;;;;5056785;28;20025;-60
2023/06/01 06:55:20;;;;;;;4.18;3.00;;;;;;;;;;5056467;28;20021;-60
2023/06/01 06:57:46;;;;;;;5.05;2.60;;;;;;;;;;5056890;28;20025;-60
2023/06/01 07:00:14;;;;;;;4.47;2.67;;;;;;;;;;5056197;28;20025;-60
2023/06/01 07:02:41;;;;;;;3.80;2.40;;;;;;;;;;5056348;28;20087;-60
2023/06/01 07:05:08;;;;;;;8.93;2.97;;;;;;;;;;5056243;28;20032;-60
2023/06/01 07:07:34;;;;;;;5.00;2.88;;;;;;;;;;5056127;28;20021;-60
2023/06/01 07:10:00;;;;;;;4.03;2.63;;;;;;;;;;5056591;28;20036;-60
2023/06/01 07:12:26;;;;;;;3.80;2.70;;;;;;;;;;5056638;28;20029;-60
2023/06/01 07:14:52;;;;;;;4.00;2.90;;;;;;;;;;5056496;28;20048;-60
2023/06/01 07:17:18;;;;;;;6.63;3.35;;;;;;;;;;5056005;28;20071;-60
2023/06/01 07:19:45;;;;;;;3.88;2.75;;;;;;;;;;5056782;28;20167;-60
2023/06/01 07:22:11;;;;;;;3.38;2.47;;;;;;;;;;5055930;28;20029;-60
2023/06/01 07:24:37;;;;;;;5.22;2.42;;;;;;;;;;5055959;28;20351;-60
2023/06/01 07:27:03;;;;;;;4.47;2.83;;;;;;;;;;5056125;28;20028;-60
2023/06/01 07:29:29;;;;;;;3.13;2.40;;;;;;;;;;5055708;28;20525;-60
2023/06/01 07:31:54;;;;;;;6.38;3.03;;;;;;;;;;5055276;28;20080;-60
2023/06/01 07:34:21;;;;;;;6.88;2.92;;;;;;;;;;5055721;28;20025;-60
2023/06/01 07:36:47;;;;;;;4.18;2.78;;;;;;;;;;5056486;28;20426;-60
2023/06/01 07:39:14;;;;;;;4.07;2.75;;;;;;;;;;5055625;28;20115;-60
2023/06/01 07:41:40;;;;;;;4.05;2.97;;;;;;;;;;5055522;28;20090;-60
2023/06/01 07:44:07;;;;;;;5.93;3.63;;;;;;;;;;5055792;28;20454;-60
2023/06/01 07:46:33;;;;;;;5.93;2.88;;;;;;;;;;5056016;28;20025;-60
2023/06/01 07:48:59;;;;;;;3.95;2.83;;;;;;;;;;5055397;28;20071;-60
2023/06/01 07:51:25;;;;;;;11.95;3.40;;;;;;;;;;5055518;28;20076;-60
2023/06/01 07:53:52;;;;;;;4.63;3.13;;;;;;;;;;5055237;28;20442;-60
2023/06/01 07:56:18;;;;;;;6.70;3.25;;;;;;;;;;5056016;28;20067;-60
2023/06/01 07:58:44;;;;;;;3.47;2.47;;;;;;;;;;5055204;28;20045;-60
2023/06/01 08:01:10;;;;;;;3.47;3.13;;;;;;;;;;5054781;28;20443;-60
2023/06/01 08:03:36;;;;;;;3.83;2.60;;;;;;;;;;5055731;28;20052;-60
2023/06/01 08:06:04;;;;;;;7.60;3.30;;;;;;;;;;5054840;28;20470;-58
2023/06/01 08:08:30;;;;;;;3.65;2.65;;;;;;;;;;5054700;28;20029;-58
2023/06/01 08:10:56;;;;;;;9.25;3.20;;;;;;;;;;5054836;28;20070;-59
2023/06/01 08:13:25;;;;;;;4.45;3.05;;;;;;;;;;5054716;28;20025;-60
2023/06/01 08:15:52;;;;;;;7.07;3.22;;;;;;;;;;5055381;28;20037;-60
2023/06/01 08:18:19;;;;;;;4.93;2.90;;;;;;;;;;5055383;28;20363;-60
2023/06/01 08:20:45;;;;;;;4.43;3.22;;;;;;;;;;5055601;28;20359;-60
2023/06/01 08:23:11;;;;;;;4.28;3.45;;;;;;;;;;5055542;28;20024;-60
2023/06/01 08:25:38;;;;;;;6.30;3.08;;;;;;;;;;5054686;28;20023;-60
2023/06/01 08:28:04;;;;;;;5.03;3.05;;;;;;;;;;5055007;28;20057;-60
2023/06/01 08:30:31;;;;;;;8.05;2.80;;;;;;;;;;5054502;28;20119;-60
2023/06/01 08:32:57;;;;;;;4.18;2.83;;;;;;;;;;5054445;28;20059;-61
2023/06/01 08:35:23;;;;;;;5.53;2.63;;;;;;;;;;5055023;28;20033;-61
2023/06/01 08:37:50;;;;;;;5.45;3.90;;;;;;;;;;5054562;28;20025;-61
2023/06/01 08:40:16;;;;;;;4.38;3.30;;;;;;;;;;5054007;28;20115;-61
2023/06/01 08:42:45;;;;;;;4.40;3.40;;;;;;;;;;5054406;28;20033;-61
2023/06/01 08:45:12;;;;;;;5.65;3.30;;;;;;;;;;5054377;28;20028;-61
2023/06/01 08:47:38;;;;;;;5.72;3.50;;;;;;;;;;5054875;28;20083;-61
2023/06/01 08:50:04;;;;;;;4.63;3.70;;;;;;;;;;5054814;28;20040;-61
2023/06/01 08:52:31;;;;;;;6.15;3.55;;;;;;;;;;5054250;28;20048;-61
2023/06/01 08:55:01;;;;;;;3.95;2.95;;;;;;;;;;5054573;28;20017;-61
2023/06/01 08:57:28;;;;;;;7.97;3.75;;;;;;;;;;5054634;28;20017;-61
2023/06/01 08:59:54;;;;;;;5.20;3.15;;;;;;;;;;5053980;28;20025;-61
2023/06/01 09:02:20;;;;;;;7.28;3.63;;;;;;;;;;5054105;28;20030;-61
2023/06/01 09:04:46;;;;;;;4.65;3.28;;;;;;;;;;5053994;28;20159;-61
2023/06/01 09:07:13;;;;;;;4.72;2.95;;;;;;;;;;5054620;28;20049;-61
2023/06/01 09:09:39;;;;;;;3.88;3.05;;;;;;;;;;5053684;28;20418;-61
2023/06/01 09:12:25;;;;;;;5.10;3.45;;;;;;;;;;5052835;28;20475;-61
2023/06/01 09:15:03;;;;;;;7.85;3.75;;;;;;;;;;5054092;28;20119;-61
2023/06/01 09:17:29;;;;;;;4.15;3.63;;;;;;;;;;5054103;28;20032;-61
2023/06/01 09:19:56;;;;;;;6.13;3.28;;;;;;;;;;5053736;28;20032;-61
2023/06/01 09:22:21;;;;;;;12.52;4.25;;;;;;;;;;5054213;28;20021;-61
2023/06/01 09:25:00;;;;;;;4.85;3.45;;;;;;;;;;5053707;28;20017;-61
2023/06/01 09:27:27;;;;;;;4.35;3.67;;;;;;;;;;5053914;28;20052;-61
2023/06/01 09:29:56;;;;;;;7.35;3.67;;;;;;;;;;5053486;28;20371;-61
2023/06/01 09:32:24;;;;;;;5.60;3.42;;;;;;;;;;5053626;28;20024;-61
2023/06/01 09:34:50;;;;;;;4.60;3.55;;;;;;;;;;5053498;28;20029;-61
2023/06/01 09:37:16;;;;;;;7.10;3.60;;;;;;;;;;5053883;28;20410;-61
2023/06/01 09:39:43;;;;;;;6.53;2.88;;;;;;;;;;5053483;28;20070;-61
2023/06/01 09:42:09;;;;;;;8.13;4.03;;;;;;;;;;5053547;28;20352;-61
2023/06/01 09:44:40;;;;;;;5.32;3.30;;;;;;;;;;5053719;28;20052;-61
2023/06/01 09:47:06;;;;;;;;;;;;;;;;;;5054082;28;20026;-61
2023/06/01 09:49:33;;;;;;;3.47;3.13;;;;;;;;;;5053480;28;20358;-61
2023/06/01 09:52:02;;;;;;;6.95;4.22;;;;;;;;;;5053781;28;20030;-61
2023/06/01 09:54:30;;;;;;;3.53;3.05;;;;;;;;;;5054023;28;20041;-61
2023/06/01 09:56:56;;;;;;;4.85;3.20;;;;;;;;;;5053815;28;20468;-61
2023/06/01 09:59:22;;;;;;;5.18;3.67;;;;;;;;;;5053490;28;20116;-61
2023/06/01 10:01:51;;;;;;;4.78;3.00;;;;;;;;;;5053426;28;20383;-61
2023/06/01 10:04:19;;;;;;;5.65;3.75;;;;;;;;;;5053362;28;20025;-61
2023/06/01 10:06:45;;;;;;;5.65;3.95;;;;;;;;;;5053404;28;20516;-61
2023/06/01 10:09:15;;;;;;;5.80;3.80;;;;;;;;;;5053690;28;20057;-61
2023/06/01 10:11:41;;;;;;;4.72;3.78;;;;;;;;;;5053537;28;20116;-61
2023/06/01 10:14:07;;;;;;;4.03;3.40;;;;;;;;;;5053356;28;20084;-61
2023/06/01 10:16:34;;;;;;;5.32;4.07;;;;;;;;;;5053582;28;20029;-61
2023/06/01 10:19:01;;;;;;;5.07;3.80;;;;;;;;;;5053505;28;20025;-61
2023/06/01 10:21:28;;;;;;;5.40;3.42;;;;;;;;;;5053240;28;20053;-61
2023/06/01 10:23:54;;;;;;;7.38;3.92;;;;;;;;;;5056432;28;20039;-61
2023/06/01 10:26:21;;;;;;;5.78;3.15;;;;;;;;;;5057458;28;20426;-61
2023/06/01 10:28:48;;;;;;;8.52;4.75;;;;;;;;;;5056898;28;20075;-61
2023/06/01 10:31:32;;;;;;;5.82;4.13;;;;;;;;;;5056777;28;20041;-61
2023/06/01 10:33:58;;;;;;;4.72;3.40;;;;;;;;;;5056637;28;20032;-61
2023/06/01 10:36:26;;;;;;;4.30;3.03;;;;;;;;;;5057196;28;20223;-61
2023/06/01 10:39:12;;;;;;;5.25;3.22;;;;;;;;;;5056595;28;20036;-61
2023/06/01 10:41:38;;;;;;;4.07;3.13;;;;;;;;;;5056903;28;20025;-61
2023/06/01 10:44:04;;;;;;;5.25;3.50;;;;;;;;;;5056666;28;20021;-61
2023/06/01 10:46:37;;;;;;;4.50;3.35;;;;;;;;;;5057395;28;20459;-61
2023/06/01 10:49:04;;;;;;;4.30;3.33;;;;;;;;;;5056882;28;20056;-61
2023/06/01 10:51:30;;;;;;;5.10;3.47;;;;;;;;;;5057216;28;20213;-61
2023/06/01 10:54:16;;;;;;;7.35;3.50;;;;;;;;;;5056308;28;20120;-61
2023/06/01 10:56:42;;;;;;;3.70;3.38;;;;;;;;;;5056670;28;20017;-61
2023/06/01 10:59:08;;;;;;;4.57;3.35;;;;;;;;;;5056357;28;20561;-61
2023/06/01 11:01:44;;;;;;;6.53;2.75;;;;;;;;;;5056343;28;20463;-61
2023/06/01 11:04:10;;;;;;;4.05;3.00;;;;;;;;;;5056966;28;20028;-61
2023/06/01 11:06:39;;;;;;;6.72;3.25;;;;;;;;;;5056118;28;20021;-61
2023/06/01 11:09:05;;;;;;;4.93;3.58;;;;;;;;;;5056106;28;20119;-61
2023/06/01 11:11:55;;;;;;;4.90;3.45;;;;;;;;;;5056119;28;20135;-61
2023/06/01 11:14:31;;;;;;;4.15;3.15;;;;;;;;;;5056431;28;20403;-61
2023/06/01 11:17:18;;;;;;;4.55;3.70;;;;;;;;;;5056580;28;20429;-61
2023/06/01 11:19:44;;;;;;;4.75;2.92;;;;;;;;;;5056496;28;20033;-61
2023/06/01 11:22:12;;;;;;;7.38;4.40;;;;;;;;;;5055994;28;20060;-61
2023/06/01 11:24:38;;;;;;;3.85;3.30;;;;;;;;;;5055865;28;20032;-61
2023/06/01 11:27:08;;;;;;;6.90;3.10;;;;;;;;;;5055813;28;20079;-61
2023/06/01 11:29:34;;;;;;;4.28;3.22;;;;;;;;;;5055832;28;20459;-61
2023/06/01 11:32:01;;;;;;;5.28;3.40;;;;;;;;;;5056245;28;20044;-61
2023/06/01 11:34:33;;;;;;;5.00;3.40;;;;;;;;;;5055045;28;20021;-61
2023/06/01 11:37:00;;;;;;;6.32;3.10;;;;;;;;;;5056299;28;20021;-61
2023/06/01 11:39:28;;;;;;;4.13;3.10;;;;;;;;;;5055624;28;20028;-61
2023/06/01 11:42:05;;;;;;;5.50;4.10;;;;;;;;;;5055678;28;20115;-61
2023/06/01 11:44:31;;;;;;;5.20;3.80;;;;;;;;;;5055633;28;20133;-61
2023/06/01 11:46:58;;;;;;;5.10;3.30;;;;;;;;;;5055531;28;20035;-61
2023/06/01 11:49:25;;;;;;;4.38;3.38;;;;;;;;;;5056030;28;20066;-61
2023/06/01 11:51:51;;;;;;;6.20;3.42;;;;;;;;;;5055292;28;20025;-61
2023/06/01 11:54:21;;;;;;;3.78;3.35;;;;;;;;;;5055907;28;20026;-61
2023/06/01 11:56:47;;;;;;;5.47;3.55;;;;;;;;;;5055677;28;20467;-59
2023/06/01 11:59:13;;;;;;;7.57;3.35;;;;;;;;;;5055589;28;20118;-59
2023/06/01 12:01:43;;;;;;;5.40;2.85;;;;;;;;;;5055128;28;20375;-61
2023/06/01 12:04:13;;;;;;;8.38;3.80;;;;;;;;;;5055227;28;20471;-62
2023/06/01 12:06:39;;;;;;;8.68;3.35;;;;;;;;;;5055398;28;20110;-62
2023/06/01 12:09:06;;;;;;;4.47;3.25;;;;;;;;;;5055607;28;20021;-60
2023/06/01 12:11:33;;;;;;;3.97;3.55;;;;;;;;;;5054910;28;20041;-59
2023/06/01 12:13:59;;;;;;;4.70;3.45;;;;;;;;;;5055131;28;20059;-59
2023/06/01 12:16:47;;;;;;;5.53;3.65;;;;;;;;;;5054917;28;20024;-59
2023/06/01 12:19:14;;;;;;;4.18;3.78;;;;;;;;;;5054728;28;20052;-60
2023/06/01 12:21:40;;;;;;;5.40;3.55;;;;;;;;;;5054823;28;20032;-59
2023/06/01 12:24:06;;;;;;;3.90;3.25;;;;;;;;;;5054851;28;20414;-59
2023/06/01 12:26:39;;;;;;;4.88;3.45;;;;;;;;;;5054806;28;20387;-59
2023/06/01 12:29:08;;;;;;;11.63;3.72;;;;;;;;;;5054606;28;20033;-59
2023/06/01 12:31:34;;;;;;;5.28;3.80;;;;;;;;;;5054282;28;20033;-59
2023/06/01 12:34:00;;;;;;;7.38;4.10;;;;;;;;;;5054782;28;20386;-59
2023/06/01 12:36:34;;;;;;;4.90;3.42;;;;;;;;;;5054501;28;20025;-59
2023/06/01 12:39:00;;;;;;;5.68;3.28;;;;;;;;;;5054897;28;20064;-59
2023/06/01 12:41:26;;;;;;;4.38;3.33;;;;;;;;;;5054471;28;20456;-59
2023/06/01 12:43:53;;;;;;;4.97;3.67;;;;;;;;;;5054732;28;20025;-59
2023/06/01 12:46:19;;;;;;;5.00;3.22;;;;;;;;;;5053623;28;20074;-59
2023/06/01 12:48:46;;;;;;;9.68;3.58;;;;;;;;;;5054335;28;20021;-59
2023/06/01 12:51:12;;;;;;;4.15;3.22;;;;;;;;;;5054557;28;20360;-59
2023/06/01 12:53:39;;;;;;;3.90;3.20;;;;;;;;;;5054237;28;20021;-59
2023/06/01 12:56:06;;;;;;;4.68;3.10;;;;;;;;;;5054749;28;20090;-59
2023/06/01 12:58:32;;;;;;;4.65;2.67;;;;;;;;;;5054060;28;20031;-59
2023/06/01 13:00:58;;;;;;;6.32;3.75;;;;;;;;;;5054202;28;20032;-59
2023/06/01 13:03:24;;;;;;;3.42;2.67;;;;;;;;;;5054797;28;20391;-59
2023/06/01 13:05:51;;;;;;;5.20;3.72;;;;;;;;;;5054397;28;20025;-59
2023/06/01 13:08:16;;;;;;;4.82;3.50;;;;;;;;;;5054118;28;20472;-61
2023/06/01 13:10:43;;;;;;;5.40;3.95;;;;;;;;;;5053941;28;20071;-62
2023/06/01 13:13:09;;;;;;;7.38;3.80;;;;;;;;;;5053672;28;20024;-61
2023/06/01 13:15:35;;;;;;;3.55;2.78;;;;;;;;;;5054134;28;20107;-61
2023/06/01 13:18:02;;;;;;;4.50;3.10;;;;;;;;;;5054187;28;20098;-62
2023/06/01 13:20:28;;;;;;;4.63;3.35;;;;;;;;;;5054096;28;20584;-62
2023/06/01 13:22:54;;;;;;;5.53;3.67;;;;;;;;;;5053738;28;20486;-62
2023/06/01 13:25:20;;;;;;;5.30;3.15;;;;;;;;;;5053819;28;20028;-62
2023/06/01 13:27:46;;;;;;;4.70;2.72;;;;;;;;;;5054310;28;20019;-62
2023/06/01 13:30:13;;;;;;;3.63;2.80;;;;;;;;;;5053877;28;20025;-62
2023/06/01 13:32:39;;;;;;;4.03;3.00;;;;;;;;;;5053642;28;20380;-62
2023/06/01 13:35:06;;;;;;;4.03;3.03;;;;;;;;;;5054033;28;20413;-59
2023/06/01 13:37:32;;;;;;;4.18;3.35;;;;;;;;;;5053909;28;20072;-59
2023/06/01 13:39:58;;;;;;;3.97;3.00;;;;;;;;;;5053668;28;20108;-59
2023/06/01 13:42:24;;;;;;;6.78;3.42;;;;;;;;;;5053988;28;20032;-59
2023/06/01 13:44:50;;;;;;;3.78;3.08;;;;;;;;;;5053622;28;20036;-59
2023/06/01 13:47:17;;;;;;;4.60;3.03;;;;;;;;;;5053837;28;20028;-59
2023/06/01 13:49:44;;;;;;;4.30;3.60;;;;;;;;;;5053573;28;20107;-59
2023/06/01 13:52:11;;;;;;;4.72;3.20;;;;;;;;;;5052931;28;20072;-59
2023/06/01 13:54:37;;;;;;;3.40;2.83;;;;;;;;;;5053312;28;20112;-59
2023/06/01 13:57:05;;;;;;;4.88;3.15;;;;;;;;;;5053866;28;20082;-59
2023/06/01 13:59:31;;;;;;;4.22;2.90;;;;;;;;;;5057663;28;20029;-59
2023/06/01 14:01:57;;;;;;;4.55;3.25;;;;;;;;;;5057352;28;20379;-59
2023/06/01 14:04:23;;;;;;;3.58;2.78;;;;;;;;;;5057772;28;20033;-59
2023/06/01 14:06:50;;;;;;;4.25;3.05;;;;;;;;;;5057690;28;20573;-59
2023/06/01 14:09:16;;;;;;;3.85;3.03;;;;;;;;;;5057344;28;20059;-59
2023/06/01 14:11:42;;;;;;;5.45;2.50;;;;;;;;;;5057206;28;20033;-59
2023/06/01 14:14:08;;;;;;;5.95;2.95;;;;;;;;;;5057087;28;20053;-59
2023/06/01 14:16:34;;;;;;;4.05;3.20;;;;;;;;;;5057526;28;20035;-59
2023/06/01 14:19:00;;;;;;;3.40;2.63;;;;;;;;;;5057180;28;20108;-59
2023/06/01 14:21:27;;;;;;;3.75;3.00;;;;;;;;;;5057031;28;20032;-59
2023/06/01 14:23:53;;;;;;;6.63;2.95;;;;;;;;;;5056702;28;20471;-59
2023/06/01 14:26:19;;;;;;;6.32;2.47;;;;;;;;;;5057382;28;20028;-59
2023/06/01 14:28:45;;;;;;;3.35;2.60;;;;;;;;;;5057177;28;20375;-59
2023/06/01 14:31:11;;;;;;;3.55;2.80;;;;;;;;;;5056820;28;20033;-59
2023/06/01 14:33:37;;;;;;;5.53;2.30;;;;;;;;;;5056965;28;20469;-59
2023/06/01 14:36:04;;;;;;;3.80;2.47;;;;;;;;;;5057437;28;20021;-59
2023/06/01 14:38:30;;;;;;;4.93;2.72;;;;;;;;;;5056600;28;20032;-59
2023/06/01 14:40:56;;;;;;;4.72;2.92;;;;;;;;;;5056746;28;20024;-60
2023/06/01 14:43:22;;;;;;;6.82;2.95;;;;;;;;;;5056884;28;20056;-60